createdAt,value
2023-04-16T00:01:22.874Z,15.02
2023-04-16T00:03:50.986Z,13.80
2023-04-16T00:06:19.495Z,13.75
2023-04-16T00:08:47.771Z,13.25
2023-04-16T00:11:15.978Z,12.95
2023-04-16T00:13:44.160Z,12.82
2023-04-16T00:16:13.155Z,12.88
2023-04-16T00:18:43.377Z,13.57
2023-04-16T00:21:11.374Z,12.55
2023-04-16T00:23:39.629Z,12.75
2023-04-16T00:26:07.546Z,13.80
2023-04-16T00:28:35.449Z,13.50
2023-04-16T00:31:03.360Z,13.10
2023-04-16T00:33:31.286Z,12.20
2023-04-16T00:36:00.774Z,12.80
2023-04-16T00:38:30.467Z,13.80
2023-04-16T00:40:58.707Z,13.10
2023-04-16T00:43:27.693Z,12.45
2023-04-16T00:45:57.780Z,12.77
2023-04-16T00:48:28.042Z,13.23
2023-04-16T00:50:56.460Z,12.82
2023-04-16T00:53:25.755Z,12.95
2023-04-16T00:55:56.114Z,13.52
2023-04-16T00:58:25.035Z,14.10
2023-04-16T01:00:53.613Z,14.07
2023-04-16T01:03:21.534Z,14.05
2023-04-16T01:05:51.232Z,14.27
2023-04-16T01:08:20.220Z,13.70
2023-04-16T01:10:49.651Z,13.90
2023-04-16T01:13:17.706Z,15.20
2023-04-16T01:15:45.948Z,15.93
2023-04-16T01:18:17.525Z,16.95
2023-04-16T01:20:47.049Z,16.10
2023-04-16T01:23:15.522Z,15.93
2023-04-16T01:25:43.226Z,16.23
2023-04-16T01:28:11.047Z,17.05
2023-04-16T01:30:40.037Z,16.90
2023-04-16T01:33:18.044Z,17.30
2023-04-16T01:35:47.160Z,17.35
2023-04-16T01:38:17.157Z,16.30
2023-04-16T01:40:44.889Z,18.00
2023-04-16T01:43:13.216Z,17.90
2023-04-16T01:45:41.040Z,17.98
2023-04-16T01:48:10.248Z,18.30
2023-04-16T01:50:38.836Z,18.52
2023-04-16T01:53:09.670Z,18.60
2023-04-16T01:55:37.741Z,17.08
2023-04-16T01:58:07.416Z,17.50
2023-04-16T02:00:36.675Z,18.30
2023-04-16T02:03:04.958Z,17.33
2023-04-16T02:05:33.105Z,18.15
2023-04-16T02:08:01.381Z,18.20
2023-04-16T02:10:30.791Z,18.73
2023-04-16T02:12:59.328Z,18.48
2023-04-16T02:15:27.394Z,18.63
2023-04-16T02:17:57.373Z,18.00
2023-04-16T02:20:26.888Z,19.00
2023-04-16T02:23:00.699Z,18.52
2023-04-16T02:25:30.702Z,19.55
2023-04-16T02:28:00.226Z,19.52
2023-04-16T02:30:41.542Z,19.65
2023-04-16T02:33:12.110Z,19.58
2023-04-16T02:35:45.122Z,19.73
2023-04-16T02:38:13.871Z,19.77
2023-04-16T02:40:43.854Z,19.75
2023-04-16T02:43:12.151Z,19.67
2023-04-16T02:45:40.183Z,19.45
2023-04-16T02:48:09.696Z,19.23
2023-04-16T02:50:37.745Z,20.55
2023-04-16T02:53:06.608Z,20.33
2023-04-16T02:55:34.553Z,20.85
2023-04-16T02:58:04.743Z,20.55
2023-04-16T03:00:33.037Z,20.00
2023-04-16T03:03:01.880Z,21.15
2023-04-16T03:05:30.380Z,19.90
2023-04-16T03:07:58.173Z,19.23
2023-04-16T03:10:26.498Z,20.17
2023-04-16T03:12:54.229Z,18.38
2023-04-16T03:15:23.458Z,19.42
2023-04-16T03:17:51.363Z,18.90
2023-04-16T03:20:19.152Z,18.77
2023-04-16T03:22:47.048Z,18.65
2023-04-16T03:25:14.984Z,19.90
2023-04-16T03:27:42.789Z,18.58
2023-04-16T03:30:13.728Z,19.85
2023-04-16T03:32:43.461Z,19.77
2023-04-16T03:35:12.791Z,19.50
2023-04-16T03:37:40.857Z,19.35
2023-04-16T03:40:10.036Z,19.52
2023-04-16T03:42:38.580Z,19.17
2023-04-16T03:45:09.397Z,20.63
2023-04-16T03:47:38.880Z,19.40
2023-04-16T03:50:09.052Z,19.27
2023-04-16T03:52:37.512Z,19.48
2023-04-16T03:55:06.031Z,19.60
2023-04-16T03:58:09.086Z,18.05
2023-04-16T04:00:36.861Z,17.20
2023-04-16T04:03:12.651Z,17.50
2023-04-16T04:05:43.020Z,16.77
2023-04-16T04:08:12.575Z,16.83
2023-04-16T04:10:40.289Z,16.20
2023-04-16T04:13:09.727Z,15.18
2023-04-16T04:15:37.888Z,14.85
2023-04-16T04:18:06.518Z,14.30
2023-04-16T04:20:34.780Z,14.82
2023-04-16T04:23:05.049Z,13.75
2023-04-16T04:25:32.986Z,13.90
2023-04-16T04:28:01.279Z,13.57
2023-04-16T04:30:29.976Z,13.32
2023-04-16T04:32:58.288Z,13.63
2023-04-16T04:35:26.236Z,13.43
2023-04-16T04:37:54.511Z,12.50
2023-04-16T04:40:24.320Z,13.15
2023-04-16T04:42:53.573Z,12.02
2023-04-16T04:45:25.613Z,13.32
2023-04-16T04:47:54.899Z,12.85
2023-04-16T04:50:23.421Z,12.68
2023-04-16T04:52:51.252Z,12.77
2023-04-16T04:55:19.294Z,11.98
2023-04-16T04:57:48.594Z,11.20
2023-04-16T05:00:16.558Z,12.10
2023-04-16T05:02:52.063Z,12.23
2023-04-16T05:05:20.515Z,11.82
2023-04-16T05:07:48.503Z,11.70
2023-04-16T05:10:16.318Z,23.50
2023-04-16T05:12:44.003Z,12.35
2023-04-16T05:15:13.673Z,11.15
2023-04-16T05:17:41.570Z,11.95
2023-04-16T05:20:10.622Z,12.05
2023-04-16T05:22:39.126Z,11.93
2023-04-16T05:25:07.533Z,12.63
2023-04-16T05:27:35.348Z,12.65
2023-04-16T05:30:03.081Z,12.73
2023-04-16T05:32:32.368Z,13.30
2023-04-16T05:35:00.296Z,13.15
2023-04-16T05:37:28.004Z,13.25
2023-04-16T05:39:55.750Z,14.95
2023-04-16T05:42:24.003Z,13.80
2023-04-16T05:44:52.308Z,13.68
2023-04-16T05:47:20.043Z,13.38
2023-04-16T05:49:49.082Z,13.75
2023-04-16T05:52:17.000Z,13.80
2023-04-16T05:54:44.747Z,13.50
2023-04-16T05:57:12.725Z,12.98
2023-04-16T05:59:40.664Z,14.63
2023-04-16T06:02:08.541Z,13.90
2023-04-16T06:04:37.512Z,15.10
2023-04-16T06:07:06.974Z,14.90
2023-04-16T06:09:35.211Z,14.32
2023-04-16T06:12:03.317Z,14.77
2023-04-16T06:14:31.073Z,15.43
2023-04-16T06:16:58.768Z,15.18
2023-04-16T06:19:26.562Z,15.43
2023-04-16T06:21:54.615Z,16.70
2023-04-16T06:24:23.930Z,15.65
2023-04-16T06:26:51.859Z,15.85
2023-04-16T06:29:21.323Z,16.58
2023-04-16T06:31:50.356Z,16.35
2023-04-16T06:34:19.417Z,16.75
2023-04-16T06:36:47.455Z,16.75
2023-04-16T06:39:15.208Z,15.95
2023-04-16T06:41:44.488Z,17.95
2023-04-16T06:44:13.438Z,17.67
2023-04-16T06:46:41.589Z,16.98
2023-04-16T06:49:09.475Z,17.80
2023-04-16T06:51:37.421Z,16.40
2023-04-16T06:54:05.479Z,17.13
2023-04-16T06:56:33.267Z,16.85
2023-04-16T06:59:02.485Z,16.80
2023-04-16T07:01:31.933Z,15.93
2023-04-16T07:03:59.907Z,16.33
2023-04-16T07:06:28.054Z,16.23
2023-04-16T07:08:56.044Z,16.45
2023-04-16T07:11:26.096Z,16.30
2023-04-16T07:13:54.180Z,15.13
2023-04-16T07:16:23.625Z,14.77
2023-04-16T07:18:51.543Z,15.45
2023-04-16T07:21:19.916Z,14.50
2023-04-16T07:23:48.028Z,15.48
2023-04-16T07:26:16.040Z,14.15
2023-04-16T07:28:43.670Z,14.55
2023-04-16T07:31:11.698Z,14.38
2023-04-16T07:33:41.661Z,14.25
2023-04-16T07:36:09.371Z,14.20
2023-04-16T07:38:37.356Z,14.35
2023-04-16T07:41:05.275Z,14.60
2023-04-16T07:43:33.303Z,13.80
2023-04-16T07:46:01.384Z,13.38
2023-04-16T07:48:29.638Z,14.00
2023-04-16T07:50:59.064Z,14.30
2023-04-16T07:53:28.552Z,13.80
2023-04-16T07:55:56.492Z,13.27
2023-04-16T07:58:25.477Z,14.00
2023-04-16T08:00:53.477Z,12.88
2023-04-16T08:03:21.630Z,13.18
2023-04-16T08:05:49.655Z,12.15
2023-04-16T08:08:18.829Z,12.05
2023-04-16T08:10:46.968Z,11.88
2023-04-16T08:13:14.656Z,12.25
2023-04-16T08:15:42.323Z,11.63
2023-04-16T08:18:12.870Z,11.30
2023-04-16T08:20:40.786Z,11.38
2023-04-16T08:23:09.254Z,10.30
2023-04-16T08:25:38.372Z,11.18
2023-04-16T08:28:06.716Z,11.93
2023-04-16T08:30:35.090Z,12.32
2023-04-16T08:33:03.015Z,12.00
2023-04-16T08:35:31.053Z,13.55
2023-04-16T08:38:02.131Z,11.77
2023-04-16T08:40:30.988Z,11.98
2023-04-16T08:43:01.195Z,12.25
2023-04-16T08:45:30.989Z,12.40
2023-04-16T08:47:59.351Z,13.15
2023-04-16T08:50:30.505Z,13.05
2023-04-16T08:53:00.710Z,12.65
2023-04-16T08:55:36.401Z,12.73
2023-04-16T08:58:10.531Z,13.70
2023-04-16T09:00:41.190Z,14.05
2023-04-16T09:03:10.276Z,13.82
2023-04-16T09:05:39.040Z,14.00
2023-04-16T09:08:07.736Z,14.40
2023-04-16T09:10:36.409Z,14.23
2023-04-16T09:13:06.125Z,14.32
2023-04-16T09:15:36.619Z,13.35
2023-04-16T09:18:04.636Z,14.25
2023-04-16T09:20:33.305Z,14.82
2023-04-16T09:23:01.315Z,13.35
2023-04-16T09:25:30.365Z,13.82
2023-04-16T09:27:58.799Z,14.48
2023-04-16T09:30:28.877Z,14.68
2023-04-16T09:33:16.521Z,14.90
2023-04-16T09:35:48.678Z,14.50
2023-04-16T09:38:17.349Z,16.20
2023-04-16T09:40:47.385Z,17.00
2023-04-16T09:43:16.929Z,15.30
2023-04-16T09:45:56.515Z,15.45
2023-04-16T09:48:31.467Z,15.48
2023-04-16T09:51:00.515Z,15.85
2023-04-16T09:53:30.675Z,16.50
2023-04-16T09:55:59.201Z,15.50
2023-04-16T09:58:27.536Z,16.60
2023-04-16T10:01:02.418Z,17.00
2023-04-16T10:03:31.781Z,16.83
2023-04-16T10:06:02.284Z,16.80
2023-04-16T10:08:30.658Z,17.95
2023-04-16T10:10:59.214Z,18.00
2023-04-16T10:13:31.552Z,16.88
2023-04-16T10:16:01.653Z,17.55
2023-04-16T10:18:30.592Z,18.20
2023-04-16T10:20:58.826Z,17.80
2023-04-16T10:23:28.277Z,17.20
2023-04-16T10:26:01.117Z,18.83
2023-04-16T10:28:29.529Z,17.92
2023-04-16T10:30:59.432Z,18.77
2023-04-16T10:33:30.776Z,18.02
2023-04-16T10:36:12.085Z,17.48
2023-04-16T10:38:41.375Z,19.17
2023-04-16T10:41:10.011Z,18.50
2023-04-16T10:43:42.586Z,17.80
2023-04-16T10:46:21.745Z,17.88
2023-04-16T10:48:54.702Z,17.77
2023-04-16T10:51:31.607Z,18.60
2023-04-16T10:54:04.972Z,18.15
2023-04-16T10:56:35.118Z,18.10
2023-04-16T10:59:06.149Z,18.00
2023-04-16T11:01:39.667Z,19.52
2023-04-16T11:04:31.220Z,19.30
2023-04-16T11:07:04.291Z,19.38
2023-04-16T11:09:53.549Z,18.33
2023-04-16T11:12:23.116Z,19.08
2023-04-16T11:14:52.429Z,18.65
2023-04-16T11:17:21.062Z,17.98
2023-04-16T11:19:59.137Z,19.33
2023-04-16T11:22:28.620Z,18.38
2023-04-16T11:24:57.295Z,17.50
2023-04-16T11:27:25.577Z,18.38
2023-04-16T11:30:01.921Z,20.13
2023-04-16T11:32:32.423Z,19.42
2023-04-16T11:35:04.354Z,18.27
2023-04-16T11:37:36.163Z,18.00
2023-04-16T11:40:10.789Z,18.70
2023-04-16T11:42:41.977Z,18.27
2023-04-16T11:45:12.089Z,18.65
2023-04-16T11:47:47.811Z,18.50
2023-04-16T11:50:22.464Z,18.92
2023-04-16T11:52:51.871Z,18.35
2023-04-16T11:55:20.617Z,18.05
2023-04-16T11:57:49.175Z,18.38
2023-04-16T12:00:21.783Z,17.92
2023-04-16T12:02:55.885Z,17.92
2023-04-16T12:05:31.006Z,18.33
2023-04-16T12:07:59.823Z,18.10
2023-04-16T12:10:28.553Z,17.92
2023-04-16T12:13:10.346Z,18.48
2023-04-16T12:15:47.479Z,18.15
2023-04-16T12:18:16.262Z,17.60
2023-04-16T12:20:46.934Z,18.23
2023-04-16T12:23:25.444Z,17.13
2023-04-16T12:25:53.931Z,18.00
2023-04-16T12:28:30.091Z,17.15
2023-04-16T12:30:59.339Z,16.25
2023-04-16T12:33:28.318Z,16.75
2023-04-16T12:35:58.545Z,18.88
2023-04-16T12:38:27.110Z,17.48
2023-04-16T12:40:57.512Z,18.00
2023-04-16T12:43:26.000Z,18.42
2023-04-16T12:45:53.993Z,19.42
2023-04-16T12:48:21.884Z,18.05
2023-04-16T12:50:50.510Z,18.75
2023-04-16T12:53:20.538Z,19.23
2023-04-16T12:55:49.530Z,18.17
2023-04-16T12:58:17.943Z,19.90
2023-04-16T13:00:52.413Z,19.45
2023-04-16T13:03:22.277Z,19.17
2023-04-16T13:05:51.929Z,20.70
2023-04-16T13:08:21.752Z,21.33
2023-04-16T13:10:54.779Z,20.20
2023-04-16T13:13:23.131Z,20.88
2023-04-16T13:15:54.424Z,20.25
2023-04-16T13:18:23.107Z,20.27
2023-04-16T13:20:52.736Z,19.63
2023-04-16T13:23:23.203Z,20.73
2023-04-16T13:25:52.314Z,20.70
2023-04-16T13:28:20.149Z,21.02
2023-04-16T13:30:48.854Z,20.95
2023-04-16T13:33:17.607Z,20.20
2023-04-16T13:35:46.400Z,20.73
2023-04-16T13:38:14.259Z,20.02
2023-04-16T13:40:52.587Z,21.73
2023-04-16T13:43:23.900Z,20.23
2023-04-16T13:45:54.285Z,21.08
2023-04-16T13:48:22.548Z,20.80
2023-04-16T13:50:50.640Z,21.48
2023-04-16T13:53:18.859Z,21.95
2023-04-16T13:55:49.662Z,19.88
2023-04-16T13:58:17.878Z,20.75
2023-04-16T14:00:48.939Z,20.83
2023-04-16T14:03:17.457Z,21.40
2023-04-16T14:05:45.525Z,22.60
2023-04-16T14:08:14.933Z,21.65
2023-04-16T14:10:42.969Z,22.90
2023-04-16T14:13:13.374Z,22.95
2023-04-16T14:15:41.850Z,23.58
2023-04-16T14:18:10.260Z,24.80
2023-04-16T14:20:41.084Z,23.50
2023-04-16T14:23:09.176Z,23.70
2023-04-16T14:25:38.736Z,26.23
2023-04-16T14:28:08.962Z,27.85
2023-04-16T14:30:38.399Z,26.45
2023-04-16T14:33:07.495Z,26.90
2023-04-16T14:35:36.131Z,25.10
2023-04-16T14:38:04.208Z,23.52
2023-04-16T14:40:33.352Z,26.00
2023-04-16T14:43:02.183Z,25.83
2023-04-16T14:45:32.297Z,26.70
2023-04-16T14:48:01.632Z,27.17
2023-04-16T14:50:29.781Z,26.67
2023-04-16T14:52:58.583Z,24.75
2023-04-16T14:55:27.447Z,24.27
2023-04-16T14:57:56.573Z,25.98
2023-04-16T15:00:26.382Z,22.75
2023-04-16T15:02:55.095Z,23.40
2023-04-16T15:05:24.608Z,23.20
2023-04-16T15:07:53.005Z,23.55
2023-04-16T15:10:26.491Z,21.38
2023-04-16T15:12:56.893Z,20.95
2023-04-16T15:15:24.910Z,19.13
2023-04-16T15:17:53.093Z,21.33
2023-04-16T15:20:21.006Z,19.70
2023-04-16T15:22:50.947Z,19.55
2023-04-16T15:25:18.980Z,19.58
2023-04-16T15:27:47.158Z,18.83
2023-04-16T15:30:31.819Z,19.15
2023-04-16T15:33:01.534Z,19.40
2023-04-16T15:35:30.397Z,19.80
2023-04-16T15:37:59.810Z,18.40
2023-04-16T15:40:31.494Z,20.55
2023-04-16T15:42:59.734Z,20.23
2023-04-16T15:45:28.227Z,20.33
2023-04-16T15:47:56.603Z,19.83
2023-04-16T15:50:31.338Z,21.73
2023-04-16T15:53:01.782Z,21.35
2023-04-16T15:55:31.970Z,20.10
2023-04-16T15:58:00.265Z,22.20
2023-04-16T16:00:29.129Z,21.15
2023-04-16T16:02:57.389Z,23.33
2023-04-16T16:05:25.712Z,22.38
2023-04-16T16:07:54.137Z,22.33
2023-04-16T16:10:33.187Z,22.10
2023-04-16T16:13:06.117Z,21.63
2023-04-16T16:15:34.154Z,21.35
2023-04-16T16:18:02.237Z,22.38
2023-04-16T16:20:30.728Z,21.63
2023-04-16T16:22:58.936Z,23.13
2023-04-16T16:25:29.085Z,22.63
2023-04-16T16:27:56.996Z,23.40
2023-04-16T16:30:33.037Z,23.48
2023-04-16T16:33:03.094Z,22.88
2023-04-16T16:35:31.295Z,22.67
2023-04-16T16:37:59.407Z,24.60
2023-04-16T16:40:29.514Z,22.45
2023-04-16T16:42:57.801Z,21.83
2023-04-16T16:45:27.179Z,22.17
2023-04-16T16:47:55.463Z,20.42
2023-04-16T16:50:24.567Z,21.25
2023-04-16T16:52:52.440Z,21.08
2023-04-16T16:55:20.928Z,23.27
2023-04-16T16:57:50.348Z,24.10
2023-04-16T17:00:21.378Z,22.20
2023-04-16T17:02:51.130Z,22.20
2023-04-16T17:05:19.819Z,22.20
2023-04-16T17:07:48.646Z,22.65
2023-04-16T17:10:20.269Z,20.80
2023-04-16T17:12:48.336Z,22.00
2023-04-16T17:15:20.591Z,22.88
2023-04-16T17:17:49.559Z,21.58
2023-04-16T17:20:18.039Z,22.42
2023-04-16T17:22:46.757Z,22.10
2023-04-16T17:25:15.119Z,23.13
2023-04-16T17:27:43.468Z,22.52
2023-04-16T17:30:13.223Z,23.30
2023-04-16T17:32:42.772Z,22.23
2023-04-16T17:35:11.350Z,22.23
2023-04-16T17:37:39.464Z,21.10
2023-04-16T17:40:10.109Z,21.08
2023-04-16T17:42:38.794Z,20.70
2023-04-16T17:45:10.869Z,21.58
2023-04-16T17:47:39.772Z,20.30
2023-04-16T17:50:10.515Z,21.10
2023-04-16T17:52:40.438Z,21.17
2023-04-16T17:55:09.404Z,21.63
2023-04-16T17:57:37.389Z,21.50
2023-04-16T18:00:10.854Z,21.58
2023-04-16T18:02:41.964Z,22.40
2023-04-16T18:05:12.117Z,21.17
2023-04-16T18:07:40.312Z,21.30
2023-04-16T18:10:09.985Z,22.10
2023-04-16T18:12:38.197Z,22.77
2023-04-16T18:15:07.051Z,22.42
2023-04-16T18:17:35.277Z,21.80
2023-04-16T18:20:05.575Z,22.25
2023-04-16T18:22:35.118Z,21.73
2023-04-16T18:25:03.545Z,22.65
2023-04-16T18:27:34.376Z,21.67
2023-04-16T18:30:04.343Z,25.88
2023-04-16T18:32:33.264Z,24.35
2023-04-16T18:35:02.093Z,26.80
2023-04-16T18:37:30.423Z,26.00
2023-04-16T18:39:59.666Z,23.25
2023-04-16T18:42:29.375Z,22.02
2023-04-16T18:44:57.300Z,21.55
2023-04-16T18:47:26.517Z,23.30
2023-04-16T18:49:54.948Z,24.90
2023-04-16T18:52:22.948Z,25.65
2023-04-16T18:54:51.466Z,25.48
2023-04-16T18:57:21.030Z,25.98
2023-04-16T18:59:48.816Z,25.58
2023-04-16T19:02:17.123Z,25.25
2023-04-16T19:04:45.171Z,26.23
2023-04-16T19:07:13.547Z,26.20
2023-04-16T19:09:41.816Z,26.33
2023-04-16T19:12:10.414Z,25.73
2023-04-16T19:14:39.893Z,23.52
2023-04-16T19:17:07.702Z,24.45
2023-04-16T19:19:37.819Z,23.90
2023-04-16T19:22:08.432Z,23.20
2023-04-16T19:24:36.514Z,23.02
2023-04-16T19:27:04.523Z,22.55
2023-04-16T19:29:34.212Z,22.70
2023-04-16T19:32:03.952Z,22.75
2023-04-16T19:34:32.944Z,22.40
2023-04-16T19:37:01.817Z,22.48
2023-04-16T19:39:30.274Z,22.83
2023-04-16T19:42:01.748Z,21.02
2023-04-16T19:44:30.825Z,21.75
2023-04-16T19:46:59.080Z,22.10
2023-04-16T19:49:34.763Z,23.23
2023-04-16T19:52:02.890Z,24.10
2023-04-16T19:54:33.780Z,24.23
2023-04-16T19:57:01.721Z,23.65
2023-04-16T19:59:29.802Z,21.88
2023-04-16T20:01:58.168Z,23.45
2023-04-16T20:04:26.559Z,22.25
2023-04-16T20:06:57.986Z,23.05
2023-04-16T20:09:26.387Z,22.17
2023-04-16T20:11:54.384Z,22.42
2023-04-16T20:14:22.465Z,22.05
2023-04-16T20:16:50.747Z,23.08
2023-04-16T20:19:19.562Z,22.52
2023-04-16T20:21:48.199Z,22.92
2023-04-16T20:24:17.811Z,21.23
2023-04-16T20:26:45.933Z,20.70
2023-04-16T20:29:14.786Z,20.73
2023-04-16T20:31:44.557Z,21.15
2023-04-16T20:34:12.909Z,21.42
2023-04-16T20:36:42.024Z,21.27
2023-04-16T20:39:10.988Z,20.00
2023-04-16T20:41:44.386Z,21.77
2023-04-16T20:44:18.382Z,20.38
2023-04-16T20:46:50.125Z,20.63
2023-04-16T20:49:19.052Z,20.83
2023-04-16T20:51:47.461Z,21.10
2023-04-16T20:54:18.339Z,22.00
2023-04-16T20:56:47.691Z,21.27
2023-04-16T20:59:15.681Z,21.17
2023-04-16T21:01:44.045Z,20.67
2023-04-16T21:04:13.702Z,20.58
2023-04-16T21:06:43.179Z,21.88
2023-04-16T21:09:11.768Z,21.75
2023-04-16T21:11:40.214Z,21.60
2023-04-16T21:14:09.510Z,21.52
2023-04-16T21:16:37.432Z,22.63
2023-04-16T21:19:06.916Z,21.02
2023-04-16T21:21:35.776Z,22.40
2023-04-16T21:24:03.867Z,22.13
2023-04-16T21:26:33.934Z,23.23
2023-04-16T21:29:02.265Z,21.33
2023-04-16T21:31:32.368Z,21.75
2023-04-16T21:34:00.602Z,21.98
2023-04-16T21:36:29.228Z,22.48
2023-04-16T21:38:57.483Z,22.50
2023-04-16T21:41:25.654Z,21.73
2023-04-16T21:43:53.542Z,22.70
2023-04-16T21:46:21.608Z,22.52
2023-04-16T21:48:51.442Z,21.83
2023-04-16T21:51:20.188Z,22.90
2023-04-16T21:53:47.883Z,22.17
2023-04-16T21:56:15.889Z,23.60
2023-04-16T21:58:43.612Z,22.83
2023-04-16T22:01:11.374Z,22.17
2023-04-16T22:03:40.887Z,23.30
2023-04-16T22:06:10.172Z,23.42
2023-04-16T22:08:37.963Z,23.55
2023-04-16T22:11:05.858Z,23.17
2023-04-16T22:13:33.981Z,23.80
2023-04-16T22:16:02.314Z,23.55
2023-04-16T22:18:33.828Z,24.08
2023-04-16T22:21:02.865Z,24.55
2023-04-16T22:23:31.871Z,24.23
2023-04-16T22:25:59.641Z,24.70
2023-04-16T22:28:27.664Z,23.77
2023-04-16T22:30:55.388Z,23.50
2023-04-16T22:33:23.753Z,23.70
2023-04-16T22:35:51.650Z,23.02
2023-04-16T22:38:19.640Z,24.05
2023-04-16T22:40:49.713Z,25.30
2023-04-16T22:43:17.995Z,25.02
2023-04-16T22:45:47.217Z,25.00
2023-04-16T22:48:15.480Z,24.52
2023-04-16T22:50:48.295Z,25.45
2023-04-16T22:53:16.264Z,24.08
2023-04-16T22:55:44.540Z,25.50
2023-04-16T22:58:13.923Z,25.48
2023-04-16T23:00:41.857Z,24.90
2023-04-16T23:03:10.027Z,25.48
2023-04-16T23:05:38.691Z,24.60
2023-04-16T23:08:07.098Z,25.52
2023-04-16T23:10:35.090Z,25.33
2023-04-16T23:13:16.956Z,25.15
2023-04-16T23:15:47.323Z,25.27
2023-04-16T23:18:15.443Z,24.73
2023-04-16T23:20:43.156Z,24.42
2023-04-16T23:23:11.122Z,24.67
2023-04-16T23:25:39.144Z,23.90
2023-04-16T23:28:06.780Z,25.55
2023-04-16T23:30:35.257Z,24.38
2023-04-16T23:33:04.343Z,23.80
2023-04-16T23:35:32.244Z,23.60
2023-04-16T23:38:00.426Z,25.20
2023-04-16T23:40:28.352Z,22.85
2023-04-16T23:42:56.054Z,24.27
2023-04-16T23:45:23.822Z,23.88
2023-04-16T23:47:51.874Z,24.40
2023-04-16T23:50:21.184Z,23.85
2023-04-16T23:52:49.277Z,22.60
2023-04-16T23:55:17.089Z,24.10
2023-04-16T23:57:45.516Z,22.48
